Time;durP1;ratioP1;P1;durP2;ratioP2;P2;SDS_P1;SDS_P2;PMS_P1;PMS_P2;Temp;Humidity;BMP_temperature;BMP_pressure;BME280_temperature;BME280_humidity;BME280_pressure;Samples;Min_cycle;Max_cycle;Signal;HPM_P1;HPM_P2
2022/04/07 00:01:41;;;;;;;8.00;3.10;;;;;;;;;;4992237;28;20051;-78
2022/04/07 00:04:07;;;;;;;9.43;3.08;;;;;;;;;;4991414;28;20043;-78
2022/04/07 00:06:34;;;;;;;8.88;3.10;;;;;;;;;;4992182;28;20154;-79
2022/04/07 00:09:03;;;;;;;8.82;2.75;;;;;;;;;;4967036;28;20082;-79
2022/04/07 00:11:30;;;;;;;12.20;3.90;;;;;;;;;;4974362;28;20063;-77
2022/04/07 00:13:56;;;;;;;11.75;2.63;;;;;;;;;;4992453;28;20529;-79
2022/04/07 00:16:23;;;;;;;11.65;2.85;;;;;;;;;;4975115;28;20055;-79
2022/04/07 00:18:49;;;;;;;9.80;2.92;;;;;;;;;;4993152;28;20059;-79
2022/04/07 00:21:24;;;;;;;7.50;2.47;;;;;;;;;;4991930;28;20574;-80
2022/04/07 00:23:51;;;;;;;10.60;2.72;;;;;;;;;;4991494;28;20735;-79
2022/04/07 00:26:17;;;;;;;9.60;2.20;;;;;;;;;;4992452;28;20150;-79
2022/04/07 00:28:44;;;;;;;9.90;2.20;;;;;;;;;;4967095;28;20059;-80
2022/04/07 00:31:11;;;;;;;10.30;2.08;;;;;;;;;;4974333;28;20134;-78
2022/04/07 00:33:38;;;;;;;17.25;2.40;;;;;;;;;;4991159;28;20093;-80
2022/04/07 00:36:05;;;;;;;7.78;2.15;;;;;;;;;;4992366;28;20284;-79
2022/04/07 00:38:31;;;;;;;12.40;2.45;;;;;;;;;;4973903;28;20091;-78
2022/04/07 00:40:57;;;;;;;10.65;2.25;;;;;;;;;;4991021;28;20133;-79
2022/04/07 00:43:30;;;;;;;10.88;2.53;;;;;;;;;;4983227;28;20588;-80
2022/04/07 00:45:57;;;;;;;8.50;2.28;;;;;;;;;;4967967;28;20923;-80
2022/04/07 00:48:23;;;;;;;11.70;2.53;;;;;;;;;;4991847;28;20437;-79
2022/04/07 00:50:50;;;;;;;14.48;2.50;;;;;;;;;;4987542;28;20153;-78
2022/04/07 00:53:16;;;;;;;11.85;2.63;;;;;;;;;;4991336;28;20051;-79
2022/04/07 00:55:43;;;;;;;10.52;2.38;;;;;;;;;;4967522;28;20146;-80
2022/04/07 00:58:10;;;;;;;12.35;2.47;;;;;;;;;;4974302;28;20398;-79
2022/04/07 01:00:36;;;;;;;11.50;3.20;;;;;;;;;;4990489;28;20552;-79
2022/04/07 01:03:03;;;;;;;10.68;3.05;;;;;;;;;;4989272;28;20150;-78
2022/04/07 01:05:29;;;;;;;15.30;2.85;;;;;;;;;;4992008;28;20102;-80
2022/04/07 01:07:55;;;;;;;9.43;2.70;;;;;;;;;;4975602;28;20074;-79
2022/04/07 01:10:22;;;;;;;10.77;3.13;;;;;;;;;;4991588;28;20110;-78
2022/04/07 01:12:48;;;;;;;6.93;2.47;;;;;;;;;;4980081;28;20055;-78
2022/04/07 01:15:15;;;;;;;12.68;2.80;;;;;;;;;;4979875;28;20481;-78
2022/04/07 01:17:41;;;;;;;8.10;2.85;;;;;;;;;;4974989;28;20109;-78
2022/04/07 01:20:08;;;;;;;10.02;2.97;;;;;;;;;;4965368;28;20530;-79
2022/04/07 01:22:35;;;;;;;10.20;3.17;;;;;;;;;;4982538;28;20086;-78
2022/04/07 01:25:01;;;;;;;10.23;2.22;;;;;;;;;;4987739;28;20056;-78
2022/04/07 01:27:27;;;;;;;11.02;2.67;;;;;;;;;;4990896;28;20099;-78
2022/04/07 01:29:54;;;;;;;8.90;3.03;;;;;;;;;;4975574;28;20059;-79
2022/04/07 01:32:23;;;;;;;10.65;3.53;;;;;;;;;;4974307;28;20070;-78
2022/04/07 01:34:50;;;;;;;10.27;2.92;;;;;;;;;;4984396;28;20637;-79
2022/04/07 01:37:17;;;;;;;9.35;3.40;;;;;;;;;;4989510;28;20521;-78
2022/04/07 01:39:44;;;;;;;13.65;3.65;;;;;;;;;;4975436;28;20083;-79
2022/04/07 01:42:13;;;;;;;15.43;4.28;;;;;;;;;;4989356;28;20908;-79
2022/04/07 01:44:42;;;;;;;12.35;3.72;;;;;;;;;;4990360;28;20142;-78
2022/04/07 01:47:09;;;;;;;12.52;4.15;;;;;;;;;;4989041;28;20137;-78
2022/04/07 01:49:36;;;;;;;14.90;5.13;;;;;;;;;;4988256;28;20086;-78
2022/04/07 01:52:04;;;;;;;16.23;5.43;;;;;;;;;;4989496;28;20137;-77
2022/04/07 01:54:31;;;;;;;11.90;4.68;;;;;;;;;;4975630;28;20051;-77
2022/04/07 01:56:58;;;;;;;16.33;4.43;;;;;;;;;;4972471;28;20074;-79
2022/04/07 01:59:26;;;;;;;13.18;3.95;;;;;;;;;;4972210;28;20122;-79
2022/04/07 02:01:52;;;;;;;12.38;4.32;;;;;;;;;;4971519;28;20125;-79
2022/04/07 02:04:18;;;;;;;20.15;4.82;;;;;;;;;;4972582;28;20144;-79
2022/04/07 02:06:44;;;;;;;19.75;4.20;;;;;;;;;;4970811;28;20221;-80
2022/04/07 02:09:11;;;;;;;15.82;3.70;;;;;;;;;;4975497;28;20055;-77
2022/04/07 02:11:37;;;;;;;13.20;3.83;;;;;;;;;;4978720;28;20154;-78
2022/04/07 02:14:03;;;;;;;18.83;3.67;;;;;;;;;;4977147;28;20070;-79
2022/04/07 02:16:30;;;;;;;14.35;3.25;;;;;;;;;;4976553;28;20094;-79
2022/04/07 02:18:57;;;;;;;17.00;3.42;;;;;;;;;;4976199;28;20057;-79
2022/04/07 02:21:23;;;;;;;12.57;3.25;;;;;;;;;;4976380;28;20090;-79
2022/04/07 02:23:51;;;;;;;13.80;2.80;;;;;;;;;;4974654;28;20253;-81
2022/04/07 02:26:18;;;;;;;12.88;2.78;;;;;;;;;;4990469;28;20070;-80
2022/04/07 02:28:44;;;;;;;13.70;2.63;;;;;;;;;;4975038;28;20082;-79
2022/04/07 02:31:11;;;;;;;14.93;2.67;;;;;;;;;;4984654;28;20161;-79
2022/04/07 02:33:38;;;;;;;15.23;2.97;;;;;;;;;;4975948;28;20138;-79
2022/04/07 02:36:04;;;;;;;14.55;2.63;;;;;;;;;;4993503;28;20142;-77
2022/04/07 02:38:31;;;;;;;14.18;2.80;;;;;;;;;;4988397;28;20142;-79
2022/04/07 02:40:57;;;;;;;14.38;2.53;;;;;;;;;;4987325;28;20102;-80
2022/04/07 02:43:24;;;;;;;11.50;2.60;;;;;;;;;;4976656;28;20128;-79
2022/04/07 02:45:50;;;;;;;14.27;2.78;;;;;;;;;;4975265;28;20099;-77
2022/04/07 02:48:17;;;;;;;14.23;3.20;;;;;;;;;;4976995;28;20082;-79
2022/04/07 02:50:43;;;;;;;14.48;3.20;;;;;;;;;;4993990;28;20142;-78
2022/04/07 02:53:10;;;;;;;21.30;3.80;;;;;;;;;;4993386;28;20050;-79
2022/04/07 02:55:36;;;;;;;13.57;3.05;;;;;;;;;;4972858;28;20079;-79
2022/04/07 02:58:03;;;;;;;18.98;4.18;;;;;;;;;;4992968;28;20517;-79
2022/04/07 03:00:29;;;;;;;12.88;3.08;;;;;;;;;;4994358;28;20070;-79
2022/04/07 03:02:55;;;;;;;17.23;3.42;;;;;;;;;;4993246;28;20107;-78
2022/04/07 03:05:22;;;;;;;15.85;3.22;;;;;;;;;;4993266;28;20043;-78
2022/04/07 03:07:48;;;;;;;19.10;2.97;;;;;;;;;;4989414;28;20055;-79
2022/04/07 03:10:15;;;;;;;18.90;3.17;;;;;;;;;;4969956;28;20639;-78
2022/04/07 03:12:41;;;;;;;16.17;3.15;;;;;;;;;;4977061;28;20043;-77
2022/04/07 03:15:09;;;;;;;14.98;3.35;;;;;;;;;;4985362;28;20502;-78
2022/04/07 03:17:35;;;;;;;19.38;3.38;;;;;;;;;;4977452;28;20581;-79
2022/04/07 03:20:02;;;;;;;16.13;3.22;;;;;;;;;;4974572;28;21044;-78
2022/04/07 03:22:28;;;;;;;13.82;3.10;;;;;;;;;;4974800;28;20145;-78
2022/04/07 03:24:54;;;;;;;12.63;2.50;;;;;;;;;;4964011;28;20127;-80
2022/04/07 03:27:21;;;;;;;17.27;3.42;;;;;;;;;;4971932;28;20059;-77
2022/04/07 03:29:47;;;;;;;14.50;3.33;;;;;;;;;;4974312;28;20539;-77
2022/04/07 03:32:13;;;;;;;13.98;3.22;;;;;;;;;;4992634;28;20055;-77
2022/04/07 03:34:40;;;;;;;13.82;2.72;;;;;;;;;;4990442;28;21374;-78
2022/04/07 03:37:06;;;;;;;17.27;2.83;;;;;;;;;;4971293;28;20605;-77
2022/04/07 03:39:33;;;;;;;11.40;2.63;;;;;;;;;;4990631;28;20521;-78
2022/04/07 03:41:59;;;;;;;20.80;3.75;;;;;;;;;;4974128;28;20122;-78
2022/04/07 03:44:26;;;;;;;16.35;3.22;;;;;;;;;;4991120;28;20165;-77
2022/04/07 03:46:52;;;;;;;17.45;4.28;;;;;;;;;;4972602;28;20129;-78
2022/04/07 03:49:20;;;;;;;13.95;3.10;;;;;;;;;;4991541;28;20063;-78
2022/04/07 03:51:46;;;;;;;14.65;3.03;;;;;;;;;;4990735;28;20142;-78
2022/04/07 03:54:14;;;;;;;23.98;4.03;;;;;;;;;;4991609;28;20055;-78
2022/04/07 03:56:40;;;;;;;13.85;3.42;;;;;;;;;;4974042;28;20090;-77
2022/04/07 03:59:07;;;;;;;11.65;3.05;;;;;;;;;;4992581;28;20039;-78
2022/04/07 04:01:34;;;;;;;19.27;3.97;;;;;;;;;;4991438;28;20137;-78
2022/04/07 04:04:04;;;;;;;17.40;3.38;;;;;;;;;;4991386;28;20122;-78
2022/04/07 04:06:30;;;;;;;11.02;3.40;;;;;;;;;;4971845;28;20089;-78
2022/04/07 04:08:56;;;;;;;13.35;3.45;;;;;;;;;;4974093;28;20065;-78
2022/04/07 04:11:23;;;;;;;19.17;3.35;;;;;;;;;;4989743;28;20094;-76
2022/04/07 04:13:49;;;;;;;17.67;3.28;;;;;;;;;;4968662;28;20101;-77
2022/04/07 04:16:17;;;;;;;10.68;3.00;;;;;;;;;;4989659;28;20089;-78
2022/04/07 04:18:44;;;;;;;16.58;3.38;;;;;;;;;;4975024;28;20838;-78
2022/04/07 04:21:10;;;;;;;12.57;2.67;;;;;;;;;;4974826;28;20142;-77
2022/04/07 04:23:38;;;;;;;15.43;2.83;;;;;;;;;;4993800;28;20797;-79
2022/04/07 04:26:05;;;;;;;16.45;3.30;;;;;;;;;;4975570;28;20081;-79
2022/04/07 04:28:32;;;;;;;15.52;3.28;;;;;;;;;;4993380;28;20117;-79
2022/04/07 04:30:59;;;;;;;9.82;2.70;;;;;;;;;;4974799;28;20066;-79
2022/04/07 04:33:25;;;;;;;9.00;2.80;;;;;;;;;;4983131;28;20074;-79
2022/04/07 04:35:56;;;;;;;;;;;;;;;;;;4990086;28;20100;-79
2022/04/07 04:38:22;;;;;;;15.38;2.60;;;;;;;;;;4984257;28;47010;-77
2022/04/07 04:40:49;;;;;;;8.88;2.10;;;;;;;;;;4991487;28;20142;-79
2022/04/07 04:43:15;;;;;;;11.85;2.17;;;;;;;;;;4987960;28;20087;-79
2022/04/07 04:45:41;;;;;;;18.63;3.17;;;;;;;;;;4990518;28;20137;-78
2022/04/07 04:48:08;;;;;;;12.20;2.55;;;;;;;;;;4993394;28;20043;-79
2022/04/07 04:50:34;;;;;;;12.50;2.58;;;;;;;;;;4975002;28;20162;-79
2022/04/07 04:53:01;;;;;;;10.27;2.25;;;;;;;;;;4991569;28;20493;-78
2022/04/07 04:55:27;;;;;;;15.23;2.53;;;;;;;;;;4991928;28;20137;-80
2022/04/07 04:57:53;;;;;;;10.13;2.70;;;;;;;;;;4974347;28;20107;-79
2022/04/07 05:00:20;;;;;;;9.73;2.65;;;;;;;;;;4992427;28;20446;-79
2022/04/07 05:02:46;;;;;;;8.57;2.38;;;;;;;;;;4988284;28;20109;-78
2022/04/07 05:05:12;;;;;;;10.65;2.67;;;;;;;;;;4990614;28;20942;-79
2022/04/07 05:07:39;;;;;;;9.15;2.50;;;;;;;;;;4992186;28;20157;-80
2022/04/07 05:10:06;;;;;;;9.52;2.22;;;;;;;;;;4981857;28;20133;-79
2022/04/07 05:12:32;;;;;;;11.52;3.03;;;;;;;;;;4984678;28;20058;-79
2022/04/07 05:14:58;;;;;;;12.98;3.15;;;;;;;;;;4988783;28;20082;-80
2022/04/07 05:17:25;;;;;;;10.73;2.95;;;;;;;;;;4972769;28;20094;-80
2022/04/07 05:19:51;;;;;;;9.00;2.58;;;;;;;;;;4974851;28;20612;-79
2022/04/07 05:22:18;;;;;;;9.85;3.10;;;;;;;;;;4975208;28;20066;-81
2022/04/07 05:24:44;;;;;;;6.25;2.92;;;;;;;;;;4990968;28;20050;-80
2022/04/07 05:27:11;;;;;;;13.23;3.05;;;;;;;;;;4992053;28;20078;-78
2022/04/07 05:29:37;;;;;;;9.70;3.40;;;;;;;;;;4972982;28;20105;-80
2022/04/07 05:32:03;;;;;;;8.02;2.50;;;;;;;;;;4979425;28;20089;-79
2022/04/07 05:34:30;;;;;;;13.98;3.00;;;;;;;;;;4991277;28;20130;-80
2022/04/07 05:36:56;;;;;;;9.65;2.90;;;;;;;;;;4971484;28;20058;-79
2022/04/07 05:39:23;;;;;;;8.68;3.03;;;;;;;;;;4966254;28;20105;-79
2022/04/07 05:41:49;;;;;;;9.88;2.78;;;;;;;;;;4974478;28;20055;-78
2022/04/07 05:44:15;;;;;;;11.80;3.20;;;;;;;;;;4993231;28;20107;-77
2022/04/07 05:46:42;;;;;;;8.25;3.05;;;;;;;;;;4980099;28;20506;-78
2022/04/07 05:49:11;;;;;;;9.60;2.80;;;;;;;;;;4977972;28;20058;-79
2022/04/07 05:51:38;;;;;;;13.52;3.88;;;;;;;;;;4994646;28;20057;-78
2022/04/07 05:54:04;;;;;;;11.25;3.20;;;;;;;;;;4996799;28;20612;-79
2022/04/07 05:56:31;;;;;;;10.07;3.03;;;;;;;;;;4978630;28;20114;-78
2022/04/07 05:58:57;;;;;;;9.25;3.15;;;;;;;;;;4996607;28;20145;-78
2022/04/07 06:01:28;;;;;;;9.60;3.78;;;;;;;;;;4969225;28;20078;-79
2022/04/07 06:03:54;;;;;;;11.05;3.55;;;;;;;;;;4975562;28;20298;-79
2022/04/07 06:06:21;;;;;;;9.20;3.50;;;;;;;;;;4997069;28;20050;-77
2022/04/07 06:08:47;;;;;;;8.02;3.65;;;;;;;;;;4979852;28;20093;-79
2022/04/07 06:11:14;;;;;;;11.30;3.95;;;;;;;;;;4996982;28;20109;-79
2022/04/07 06:13:40;;;;;;;10.90;3.85;;;;;;;;;;4978633;28;20110;-79
2022/04/07 06:16:06;;;;;;;4.65;1.80;;;;;;;;;;4979669;28;20050;-79
2022/04/07 06:18:33;;;;;;;7.13;1.00;;;;;;;;;;4989429;28;20043;-78
2022/04/07 06:20:59;;;;;;;6.47;0.98;;;;;;;;;;4978184;28;20059;-77
2022/04/07 06:23:26;;;;;;;11.20;1.20;;;;;;;;;;4979312;28;20086;-77
2022/04/07 06:25:53;;;;;;;5.13;0.68;;;;;;;;;;4992932;28;20094;-78
2022/04/07 06:28:22;;;;;;;5.53;0.98;;;;;;;;;;4979085;28;20141;-78
2022/04/07 06:30:49;;;;;;;4.97;0.68;;;;;;;;;;4979281;28;20101;-79
2022/04/07 06:33:15;;;;;;;5.78;0.75;;;;;;;;;;4997740;28;20085;-78
2022/04/07 06:35:42;;;;;;;3.70;0.70;;;;;;;;;;4998053;28;20292;-78
2022/04/07 06:38:08;;;;;;;4.22;0.77;;;;;;;;;;4996360;28;20047;-78
2022/04/07 06:40:34;;;;;;;5.30;0.70;;;;;;;;;;4981305;28;20113;-78
2022/04/07 06:43:01;;;;;;;5.82;0.88;;;;;;;;;;4992873;28;20110;-78
2022/04/07 06:45:28;;;;;;;5.43;1.10;;;;;;;;;;4994115;28;20126;-77
2022/04/07 06:47:55;;;;;;;4.40;0.80;;;;;;;;;;4977899;28;20047;-78
2022/04/07 06:50:25;;;;;;;4.75;1.10;;;;;;;;;;4995741;28;20038;-78
2022/04/07 06:52:52;;;;;;;9.02;1.00;;;;;;;;;;4996557;28;20146;-78
2022/04/07 06:55:19;;;;;;;5.05;1.10;;;;;;;;;;4990830;28;20852;-78
2022/04/07 06:57:53;;;;;;;4.70;0.80;;;;;;;;;;4975267;28;20465;-78
2022/04/07 07:00:20;;;;;;;5.97;1.00;;;;;;;;;;4990069;28;20176;-78
2022/04/07 07:02:53;;;;;;;5.65;1.08;;;;;;;;;;4991583;28;20055;-78
2022/04/07 07:05:21;;;;;;;9.10;1.13;;;;;;;;;;4993747;28;20061;-78
2022/04/07 07:07:47;;;;;;;8.35;1.10;;;;;;;;;;4973507;28;20141;-78
2022/04/07 07:10:21;;;;;;;8.43;0.95;;;;;;;;;;4985079;28;20079;-78
2022/04/07 07:12:48;;;;;;;8.75;1.30;;;;;;;;;;5001390;28;20066;-78
2022/04/07 07:15:14;;;;;;;9.07;0.90;;;;;;;;;;4979984;28;20149;-77
2022/04/07 07:17:41;;;;;;;5.82;1.30;;;;;;;;;;4990285;28;20414;-77
2022/04/07 07:20:10;;;;;;;7.45;1.13;;;;;;;;;;4988662;28;20051;-78
2022/04/07 07:22:37;;;;;;;11.38;1.30;;;;;;;;;;4991585;28;20090;-78
2022/04/07 07:25:04;;;;;;;10.02;1.63;;;;;;;;;;4982595;28;20062;-77
2022/04/07 07:27:40;;;;;;;8.32;1.23;;;;;;;;;;4977637;28;20062;-77
2022/04/07 07:30:09;;;;;;;7.60;1.15;;;;;;;;;;4985126;28;20082;-78
2022/04/07 07:32:39;;;;;;;7.90;1.10;;;;;;;;;;4980643;28;20075;-78
2022/04/07 07:35:06;;;;;;;5.93;1.08;;;;;;;;;;4994062;28;20062;-78
2022/04/07 07:37:33;;;;;;;6.20;1.30;;;;;;;;;;4989704;28;20661;-78
2022/04/07 07:40:08;;;;;;;11.55;1.25;;;;;;;;;;4990751;28;20345;-78
2022/04/07 07:42:38;;;;;;;8.38;1.30;;;;;;;;;;4981224;28;20383;-78
2022/04/07 07:45:04;;;;;;;7.53;1.20;;;;;;;;;;4988532;28;20134;-78
2022/04/07 07:47:31;;;;;;;12.85;1.45;;;;;;;;;;4976983;28;20087;-78
2022/04/07 07:49:58;;;;;;;8.70;1.77;;;;;;;;;;4988171;28;20075;-78
2022/04/07 07:52:24;;;;;;;9.70;0.90;;;;;;;;;;4983721;28;20074;-78
2022/04/07 07:54:50;;;;;;;13.23;1.05;;;;;;;;;;4976280;28;20086;-78
2022/04/07 07:57:18;;;;;;;4.68;1.02;;;;;;;;;;4985650;28;20090;-78
2022/04/07 07:59:44;;;;;;;7.72;1.20;;;;;;;;;;4991202;28;20051;-78
2022/04/07 08:02:11;;;;;;;5.18;0.80;;;;;;;;;;4992565;28;20066;-78
2022/04/07 08:04:40;;;;;;;4.90;0.95;;;;;;;;;;4975646;28;20059;-77
2022/04/07 08:07:07;;;;;;;6.00;0.95;;;;;;;;;;4978218;28;20252;-78
2022/04/07 08:09:33;;;;;;;6.63;1.08;;;;;;;;;;4971612;28;20869;-78
2022/04/07 08:11:59;;;;;;;5.55;0.80;;;;;;;;;;4993875;28;20481;-78
2022/04/07 08:14:26;;;;;;;3.67;0.70;;;;;;;;;;4964406;28;20070;-77
2022/04/07 08:16:52;;;;;;;5.78;0.80;;;;;;;;;;4983336;28;20060;-77
2022/04/07 08:19:18;;;;;;;6.22;0.90;;;;;;;;;;4974825;28;20089;-77
2022/04/07 08:21:45;;;;;;;4.53;1.00;;;;;;;;;;4974721;28;20117;-77
2022/04/07 08:24:12;;;;;;;3.58;0.80;;;;;;;;;;4973082;28;20062;-77
2022/04/07 08:26:38;;;;;;;3.50;0.85;;;;;;;;;;4990180;28;20074;-78
2022/04/07 08:29:04;;;;;;;3.65;0.75;;;;;;;;;;4973091;28;20078;-77
2022/04/07 08:31:31;;;;;;;3.97;0.93;;;;;;;;;;4991432;28;20066;-78
2022/04/07 08:33:57;;;;;;;6.20;1.00;;;;;;;;;;4989747;28;20506;-77
2022/04/07 08:36:24;;;;;;;3.25;0.70;;;;;;;;;;4978882;28;20179;-78
2022/04/07 08:38:50;;;;;;;3.67;0.70;;;;;;;;;;4989788;28;20481;-77
2022/04/07 08:41:17;;;;;;;2.47;0.60;;;;;;;;;;4985346;28;20561;-77
2022/04/07 08:43:44;;;;;;;2.05;0.77;;;;;;;;;;4971180;28;20047;-78
2022/04/07 08:46:11;;;;;;;5.15;1.05;;;;;;;;;;4976044;28;20070;-78
2022/04/07 08:48:44;;;;;;;6.03;1.10;;;;;;;;;;4982751;28;20130;-79
2022/04/07 08:51:11;;;;;;;7.70;1.08;;;;;;;;;;4974666;28;20059;-76
2022/04/07 08:53:38;;;;;;;4.78;1.25;;;;;;;;;;4991672;28;21114;-78
2022/04/07 08:56:06;;;;;;;7.15;1.02;;;;;;;;;;4992480;28;20159;-77
2022/04/07 08:58:33;;;;;;;5.78;1.13;;;;;;;;;;4983593;28;20086;-77
2022/04/07 09:01:00;;;;;;;2.67;0.70;;;;;;;;;;4991276;28;20086;-77
2022/04/07 09:03:26;;;;;;;7.07;1.52;;;;;;;;;;4979656;28;20138;-79
2022/04/07 09:05:57;;;;;;;6.45;0.93;;;;;;;;;;4978800;28;20061;-78
2022/04/07 09:08:34;;;;;;;9.70;1.60;;;;;;;;;;4974919;28;20208;-77
2022/04/07 09:11:02;;;;;;;4.53;1.10;;;;;;;;;;4991479;28;20520;-77
2022/04/07 09:13:29;;;;;;;6.90;1.00;;;;;;;;;;4989519;28;20065;-78
2022/04/07 09:15:56;;;;;;;6.53;1.20;;;;;;;;;;4974326;28;20066;-79
2022/04/07 09:18:24;;;;;;;5.75;1.02;;;;;;;;;;4999460;28;20093;-77
2022/04/07 09:20:51;;;;;;;6.78;1.40;;;;;;;;;;4971348;28;20059;-77
2022/04/07 09:23:17;;;;;;;6.00;0.98;;;;;;;;;;4986425;28;20141;-78
2022/04/07 09:25:44;;;;;;;4.03;1.02;;;;;;;;;;4986706;28;20058;-79
2022/04/07 09:28:11;;;;;;;6.57;1.10;;;;;;;;;;4989230;28;20129;-78
2022/04/07 09:30:37;;;;;;;8.70;1.23;;;;;;;;;;4989118;28;20090;-77
2022/04/07 09:33:04;;;;;;;9.27;1.00;;;;;;;;;;4972526;28;20055;-78
2022/04/07 09:35:30;;;;;;;4.88;1.10;;;;;;;;;;4988698;28;20138;-78
2022/04/07 09:38:00;;;;;;;9.82;1.60;;;;;;;;;;4977190;28;20141;-77
2022/04/07 09:40:27;;;;;;;5.03;0.80;;;;;;;;;;4986170;28;20054;-77
2022/04/07 09:43:00;;;;;;;7.85;1.08;;;;;;;;;;4972101;28;20051;-77
2022/04/07 09:45:27;;;;;;;7.88;1.50;;;;;;;;;;4972451;28;20054;-77
2022/04/07 09:48:20;;;;;;;6.35;1.20;;;;;;;;;;4973313;28;20061;-76
2022/04/07 09:51:02;;;;;;;8.57;1.27;;;;;;;;;;4987686;28;20109;-78
2022/04/07 09:53:35;;;;;;;6.57;1.40;;;;;;;;;;4989954;28;20058;-76
2022/04/07 09:56:01;;;;;;;10.27;1.45;;;;;;;;;;4969923;28;20133;-78
2022/04/07 09:58:28;;;;;;;9.80;1.58;;;;;;;;;;4971000;28;20046;-78
2022/04/07 10:00:56;;;;;;;5.97;0.98;;;;;;;;;;4988197;28;20129;-78
2022/04/07 10:03:22;;;;;;;8.02;1.25;;;;;;;;;;4970119;28;20469;-78
2022/04/07 10:05:50;;;;;;;9.73;1.33;;;;;;;;;;4969831;28;20159;-77
2022/04/07 10:08:16;;;;;;;6.95;1.38;;;;;;;;;;4995089;28;20051;-79
2022/04/07 10:10:43;;;;;;;7.15;1.27;;;;;;;;;;4986673;28;20604;-78
2022/04/07 10:13:11;;;;;;;6.32;1.40;;;;;;;;;;4982241;28;20063;-78
2022/04/07 10:15:38;;;;;;;11.15;1.65;;;;;;;;;;4988421;28;20043;-78
2022/04/07 10:18:09;;;;;;;9.18;1.20;;;;;;;;;;4970952;28;20580;-77
2022/04/07 10:20:38;;;;;;;9.23;1.50;;;;;;;;;;4966807;28;20050;-78
2022/04/07 10:23:19;;;;;;;7.00;1.30;;;;;;;;;;5001413;28;20050;-77
2022/04/07 10:25:50;;;;;;;7.95;1.23;;;;;;;;;;4979190;28;20172;-77
2022/04/07 10:28:17;;;;;;;9.27;1.73;;;;;;;;;;4971741;28;20054;-78
2022/04/07 10:30:47;;;;;;;8.90;1.40;;;;;;;;;;4985198;28;20063;-79
2022/04/07 10:33:32;;;;;;;6.75;1.77;;;;;;;;;;4988243;28;20055;-80
2022/04/07 10:35:59;;;;;;;5.72;1.20;;;;;;;;;;4991622;28;20948;-79
2022/04/07 10:38:52;;;;;;;6.95;1.70;;;;;;;;;;4972976;28;20065;-78
2022/04/07 10:41:36;;;;;;;8.85;1.50;;;;;;;;;;5000444;28;20082;-78
2022/04/07 10:44:08;;;;;;;8.80;1.83;;;;;;;;;;4994880;28;20885;-77
2022/04/07 10:46:34;;;;;;;12.45;1.63;;;;;;;;;;4978496;28;20062;-80
2022/04/07 10:49:05;;;;;;;9.05;1.70;;;;;;;;;;4988541;28;20138;-78
2022/04/07 10:51:39;;;;;;;7.95;1.45;;;;;;;;;;4993627;28;20082;-79
2022/04/07 10:54:06;;;;;;;11.15;1.83;;;;;;;;;;4972927;28;20134;-78
2022/04/07 10:56:34;;;;;;;11.07;2.05;;;;;;;;;;4993936;28;20145;-79
2022/04/07 10:59:09;;;;;;;9.77;1.80;;;;;;;;;;4993150;28;20114;-80
2022/04/07 11:01:42;;;;;;;14.57;1.90;;;;;;;;;;4994278;28;20094;-79
2022/04/07 11:04:20;;;;;;;10.55;1.77;;;;;;;;;;4968535;28;20809;-78
2022/04/07 11:07:13;;;;;;;10.40;1.52;;;;;;;;;;4974413;28;20043;-80
2022/04/07 11:09:46;;;;;;;8.43;1.50;;;;;;;;;;4974777;28;20501;-80
2022/04/07 11:12:16;;;;;;;8.60;1.70;;;;;;;;;;4991003;28;20054;-78
2022/04/07 11:14:43;;;;;;;10.95;1.75;;;;;;;;;;4996051;28;20073;-77
2022/04/07 11:17:14;;;;;;;13.32;1.63;;;;;;;;;;4981419;28;20059;-80
2022/04/07 11:19:52;;;;;;;12.82;1.92;;;;;;;;;;4994167;28;20191;-78
2022/04/07 11:22:22;;;;;;;12.05;1.80;;;;;;;;;;4979584;28;20059;-79
2022/04/07 11:24:54;;;;;;;15.25;2.10;;;;;;;;;;4987839;28;20529;-80
2022/04/07 11:27:47;;;;;;;7.60;1.83;;;;;;;;;;4991013;28;20093;-80
2022/04/07 11:30:14;;;;;;;6.97;1.35;;;;;;;;;;4984187;28;20529;-80
2022/04/07 11:32:59;;;;;;;9.90;1.67;;;;;;;;;;4973151;28;20043;-81
2022/04/07 11:35:26;;;;;;;7.97;1.50;;;;;;;;;;5006641;28;20059;-79
2022/04/07 11:37:52;;;;;;;10.43;2.10;;;;;;;;;;4991862;28;20109;-79
2022/04/07 11:40:18;;;;;;;10.82;2.35;;;;;;;;;;4992970;28;20473;-81
2022/04/07 11:42:48;;;;;;;11.77;1.70;;;;;;;;;;5010477;28;20054;-82
2022/04/07 11:45:15;;;;;;;8.83;1.70;;;;;;;;;;4985258;28;20077;-80
2022/04/07 11:47:48;;;;;;;5.80;0.98;;;;;;;;;;4991743;28;20144;-82
2022/04/07 11:50:14;;;;;;;13.10;2.30;;;;;;;;;;4988162;28;20059;-78
2022/04/07 11:52:41;;;;;;;11.90;2.40;;;;;;;;;;4993138;28;20117;-80
2022/04/07 11:55:07;;;;;;;13.73;1.95;;;;;;;;;;4975773;28;20051;-80
2022/04/07 11:57:34;;;;;;;16.17;2.05;;;;;;;;;;4983592;28;20082;-82
2022/04/07 12:00:01;;;;;;;9.52;1.70;;;;;;;;;;4993565;28;20051;-81
2022/04/07 12:02:27;;;;;;;15.13;2.00;;;;;;;;;;4993652;28;20055;-81
2022/04/07 12:04:58;;;;;;;7.82;1.58;;;;;;;;;;4988720;28;20061;-81
2022/04/07 12:07:24;;;;;;;7.22;1.40;;;;;;;;;;4987789;28;20081;-82
2022/04/07 12:09:51;;;;;;;8.45;1.55;;;;;;;;;;4991530;28;20510;-80
2022/04/07 12:12:17;;;;;;;11.95;1.88;;;;;;;;;;4993893;28;20528;-82
2022/04/07 12:14:44;;;;;;;9.63;1.40;;;;;;;;;;4976178;28;20047;-81
2022/04/07 12:17:11;;;;;;;12.30;1.75;;;;;;;;;;4992155;28;20054;-81
2022/04/07 12:19:45;;;;;;;8.75;1.88;;;;;;;;;;4991054;28;20106;-80
2022/04/07 12:22:11;;;;;;;12.88;1.60;;;;;;;;;;4973846;28;20114;-80
2022/04/07 12:24:38;;;;;;;7.72;1.77;;;;;;;;;;4990050;28;20094;-81
2022/04/07 12:27:04;;;;;;;12.10;2.17;;;;;;;;;;4979084;28;20824;-79
2022/04/07 12:29:34;;;;;;;9.90;1.65;;;;;;;;;;4992181;28;20062;-80
2022/04/07 12:32:02;;;;;;;12.85;1.90;;;;;;;;;;4990933;28;20113;-80
2022/04/07 12:34:29;;;;;;;10.30;1.85;;;;;;;;;;4989984;28;20518;-81
2022/04/07 12:36:56;;;;;;;7.38;1.38;;;;;;;;;;4993920;28;20086;-80
2022/04/07 12:39:29;;;;;;;12.75;1.73;;;;;;;;;;4983035;28;20057;-79
2022/04/07 12:42:02;;;;;;;8.05;1.58;;;;;;;;;;4990358;28;20054;-80
2022/04/07 12:44:29;;;;;;;10.00;1.75;;;;;;;;;;4987628;28;20090;-80
2022/04/07 12:47:01;;;;;;;15.35;2.75;;;;;;;;;;4987675;28;20098;-80
2022/04/07 12:49:31;;;;;;;17.27;1.75;;;;;;;;;;4991699;28;20145;-80
2022/04/07 12:52:01;;;;;;;11.90;1.60;;;;;;;;;;4970021;28;20121;-80
2022/04/07 12:54:28;;;;;;;9.95;1.38;;;;;;;;;;4987403;28;20089;-81
2022/04/07 12:57:14;;;;;;;13.10;2.05;;;;;;;;;;4981514;28;20130;-81
2022/04/07 12:59:53;;;;;;;10.10;1.60;;;;;;;;;;4977507;28;20174;-82
2022/04/07 13:02:20;;;;;;;7.50;1.45;;;;;;;;;;4990421;28;20050;-80
2022/04/07 13:04:50;;;;;;;10.70;1.48;;;;;;;;;;4973186;28;20868;-79
2022/04/07 13:07:17;;;;;;;10.55;1.67;;;;;;;;;;4974253;28;20051;-80
2022/04/07 13:09:43;;;;;;;11.25;1.67;;;;;;;;;;4991660;28;20110;-81
2022/04/07 13:12:10;;;;;;;11.73;1.83;;;;;;;;;;4970015;28;20051;-80
2022/04/07 13:14:36;;;;;;;8.02;1.50;;;;;;;;;;4973884;28;20065;-80
2022/04/07 13:17:03;;;;;;;8.48;1.40;;;;;;;;;;4989312;28;20979;-81
2022/04/07 13:19:29;;;;;;;8.63;1.30;;;;;;;;;;4973148;28;20059;-81
2022/04/07 13:21:56;;;;;;;10.23;1.48;;;;;;;;;;5005258;28;20094;-80
2022/04/07 13:24:22;;;;;;;9.02;1.50;;;;;;;;;;4989850;28;20078;-81
2022/04/07 13:26:49;;;;;;;6.22;1.42;;;;;;;;;;4985583;28;20534;-82
2022/04/07 13:29:16;;;;;;;8.85;1.40;;;;;;;;;;4990922;28;20055;-82
2022/04/07 13:31:43;;;;;;;11.73;1.45;;;;;;;;;;4990292;28;20081;-81
2022/04/07 13:34:09;;;;;;;7.70;1.20;;;;;;;;;;4985327;28;20054;-80
2022/04/07 13:36:38;;;;;;;8.48;1.35;;;;;;;;;;4976564;28;20561;-80
2022/04/07 13:39:05;;;;;;;12.57;1.58;;;;;;;;;;4983177;28;20044;-82
2022/04/07 13:41:31;;;;;;;10.00;1.42;;;;;;;;;;4970163;28;20051;-81
2022/04/07 13:43:58;;;;;;;10.38;1.67;;;;;;;;;;4984246;28;20066;-81
2022/04/07 13:46:24;;;;;;;9.40;1.25;;;;;;;;;;4986530;28;20086;-82
2022/04/07 13:48:51;;;;;;;7.55;1.60;;;;;;;;;;5003733;28;20089;-84
2022/04/07 13:51:17;;;;;;;7.60;1.33;;;;;;;;;;5003394;28;20059;-82
2022/04/07 13:53:44;;;;;;;7.28;1.55;;;;;;;;;;4990226;28;20134;-82
2022/04/07 13:56:10;;;;;;;10.20;1.70;;;;;;;;;;4987529;28;20200;-82
2022/04/07 13:58:37;;;;;;;9.57;1.55;;;;;;;;;;4986079;28;20055;-80
2022/04/07 14:01:04;;;;;;;9.35;1.67;;;;;;;;;;4988644;28;20054;-82
2022/04/07 14:03:30;;;;;;;10.02;1.92;;;;;;;;;;4971399;28;20082;-82
2022/04/07 14:06:00;;;;;;;9.27;1.50;;;;;;;;;;4983671;28;20066;-82
2022/04/07 14:08:27;;;;;;;8.15;1.40;;;;;;;;;;4991291;28;20047;-81
2022/04/07 14:10:53;;;;;;;11.30;1.88;;;;;;;;;;4992934;28;20082;-81
2022/04/07 14:13:24;;;;;;;7.82;1.15;;;;;;;;;;4985991;28;20082;-81
2022/04/07 14:15:50;;;;;;;;;;;;;;;;;;4989256;28;20142;-81
2022/04/07 14:18:17;;;;;;;11.63;1.48;;;;;;;;;;4977937;28;48107;-80
2022/04/07 14:20:45;;;;;;;7.60;1.42;;;;;;;;;;4985917;28;20273;-81
2022/04/07 14:23:11;;;;;;;7.65;1.08;;;;;;;;;;4972257;28;20114;-80
2022/04/07 14:25:38;;;;;;;6.90;1.23;;;;;;;;;;4989431;28;20046;-82
2022/04/07 14:28:05;;;;;;;11.30;1.10;;;;;;;;;;4990171;28;20109;-80
2022/04/07 14:30:32;;;;;;;9.70;1.60;;;;;;;;;;4982337;28;20054;-81
2022/04/07 14:32:59;;;;;;;8.73;1.38;;;;;;;;;;4997730;28;20094;-80
2022/04/07 14:35:40;;;;;;;7.57;1.40;;;;;;;;;;4984014;28;20224;-80
2022/04/07 14:38:07;;;;;;;7.07;1.52;;;;;;;;;;4979623;28;20058;-81
2022/04/07 14:40:33;;;;;;;6.75;1.00;;;;;;;;;;5011390;28;20081;-82
2022/04/07 14:43:00;;;;;;;6.93;1.20;;;;;;;;;;4978862;28;20536;-82